createdAt,value
2022-09-14T00:03:08.928Z,16.22
2022-09-14T00:08:12.101Z,16.55
2022-09-14T00:13:17.478Z,16.17
2022-09-14T00:18:21.501Z,15.91
2022-09-14T00:23:24.178Z,15.85
2022-09-14T00:28:26.811Z,15.85
2022-09-14T00:33:29.641Z,14.88
2022-09-14T00:38:33.313Z,15.66
2022-09-14T00:43:52.110Z,15.11
2022-09-14T00:48:55.957Z,16.20
2022-09-14T00:53:58.938Z,15.37
2022-09-14T00:59:07.666Z,16.16
2022-09-14T01:04:10.399Z,16.27
2022-09-14T01:09:23.481Z,16.38
2022-09-14T01:14:52.747Z,16.01
2022-09-14T01:20:29.370Z,16.54
2022-09-14T01:26:07.260Z,16.47
2022-09-14T01:31:33.244Z,16.67
2022-09-14T01:36:39.507Z,16.41
2022-09-14T01:41:43.313Z,16.86
2022-09-14T01:46:51.137Z,17.07
2022-09-14T01:52:04.914Z,16.87
2022-09-14T01:57:37.513Z,15.88
2022-09-14T02:02:55.342Z,17.14
2022-09-14T02:07:58.682Z,16.33
2022-09-14T02:13:01.489Z,16.06
2022-09-14T02:18:05.619Z,16.55
2022-09-14T02:23:09.447Z,16.96
2022-09-14T02:28:12.118Z,16.69
2022-09-14T02:33:22.197Z,16.81
2022-09-14T02:38:36.781Z,16.52
2022-09-14T02:43:47.500Z,17.05
2022-09-14T02:48:58.455Z,16.75
2022-09-14T02:54:29.660Z,16.87
2022-09-14T02:59:32.634Z,16.63
2022-09-14T03:04:37.339Z,16.56
2022-09-14T03:09:40.972Z,16.29
2022-09-14T03:14:43.603Z,15.27
2022-09-14T03:19:46.222Z,16.15
2022-09-14T03:24:49.270Z,15.85
2022-09-14T03:29:51.911Z,15.32
2022-09-14T03:34:55.046Z,15.96
2022-09-14T03:39:57.802Z,15.83
2022-09-14T03:45:01.173Z,15.83
2022-09-14T03:50:04.165Z,15.86
2022-09-14T03:55:10.149Z,15.94
2022-09-14T04:00:14.150Z,15.62
2022-09-14T04:05:21.576Z,15.94
2022-09-14T04:10:24.525Z,15.61
2022-09-14T04:15:28.388Z,16.18
2022-09-14T04:20:31.165Z,16.02
2022-09-14T04:25:33.902Z,15.76
2022-09-14T04:30:36.533Z,16.05
2022-09-14T04:35:40.281Z,15.91
2022-09-14T04:40:43.816Z,15.64
2022-09-14T04:45:46.714Z,15.92
2022-09-14T04:50:50.167Z,16.46
2022-09-14T04:55:52.845Z,16.03
2022-09-14T05:01:01.708Z,16.48
2022-09-14T05:06:06.329Z,15.66
2022-09-14T05:11:10.318Z,16.63
2022-09-14T05:16:17.631Z,16.47
2022-09-14T05:21:22.514Z,15.81
2022-09-14T05:26:26.916Z,16.56
2022-09-14T05:31:30.559Z,16.77
2022-09-14T05:36:34.044Z,16.14
2022-09-14T05:41:36.874Z,16.08
2022-09-14T05:46:39.655Z,16.63
2022-09-14T05:51:42.401Z,16.40
2022-09-14T05:56:45.168Z,16.79
2022-09-14T06:01:47.908Z,16.83
2022-09-14T06:07:07.959Z,16.12
2022-09-14T06:12:15.435Z,17.03
2022-09-14T06:17:18.026Z,17.25
2022-09-14T06:22:20.782Z,17.26
2022-09-14T06:27:23.516Z,16.91
2022-09-14T06:32:28.137Z,17.12
2022-09-14T06:37:30.870Z,17.59
2022-09-14T06:42:33.679Z,17.70
2022-09-14T06:47:36.450Z,18.05
2022-09-14T06:52:40.397Z,18.93
2022-09-14T06:57:43.297Z,19.05
2022-09-14T07:02:46.104Z,19.94
2022-09-14T07:07:52.343Z,19.55
2022-09-14T07:12:55.832Z,19.54
2022-09-14T07:17:59.742Z,20.23
2022-09-14T07:23:02.455Z,19.62
2022-09-14T07:28:05.324Z,20.88
2022-09-14T07:33:08.921Z,20.54
2022-09-14T07:38:11.536Z,20.79
2022-09-14T07:43:14.809Z,20.51
2022-09-14T07:48:17.477Z,20.76
2022-09-14T07:53:21.609Z,20.26
2022-09-14T07:58:24.466Z,20.53
2022-09-14T08:03:27.783Z,20.98
2022-09-14T08:08:32.247Z,20.81
2022-09-14T08:13:36.235Z,20.44
2022-09-14T08:18:39.214Z,21.16
2022-09-14T08:23:44.922Z,20.87
2022-09-14T08:28:49.508Z,21.39
2022-09-14T08:33:55.773Z,21.90
2022-09-14T08:38:58.988Z,21.99
2022-09-14T08:44:14.801Z,21.86
2022-09-14T08:49:47.786Z,22.03
2022-09-14T08:54:55.614Z,22.01
2022-09-14T09:00:14.167Z,22.03
2022-09-14T09:05:40.020Z,21.45
2022-09-14T09:10:43.363Z,21.31
2022-09-14T09:15:51.372Z,21.92
2022-09-14T09:21:01.287Z,21.95
2022-09-14T09:26:23.452Z,22.16
2022-09-14T09:31:34.701Z,22.35
2022-09-14T09:36:41.485Z,22.25
2022-09-14T09:41:45.714Z,22.78
2022-09-14T09:46:54.004Z,21.93
2022-09-14T09:51:57.316Z,22.60
2022-09-14T09:57:03.136Z,22.91
2022-09-14T10:02:33.890Z,23.73
2022-09-14T10:07:54.762Z,24.07
2022-09-14T10:12:57.835Z,23.96
2022-09-14T10:18:17.760Z,24.15
2022-09-14T10:23:20.413Z,24.72
2022-09-14T10:28:34.882Z,24.40
2022-09-14T10:33:37.843Z,24.74
2022-09-14T10:44:28.874Z,24.19
2022-09-14T10:49:51.978Z,24.16
2022-09-14T10:55:08.961Z,24.04
2022-09-14T11:00:22.753Z,24.10
2022-09-14T11:05:37.089Z,23.94
2022-09-14T11:11:11.662Z,23.77
2022-09-14T11:16:26.484Z,23.48
2022-09-14T11:21:49.493Z,24.18
2022-09-14T11:27:23.663Z,25.19
2022-09-14T11:32:56.785Z,24.88
2022-09-14T11:38:02.777Z,25.64
2022-09-14T11:43:15.547Z,25.31
2022-09-14T11:48:43.180Z,24.42
2022-09-14T11:53:48.133Z,24.65
2022-09-14T11:58:51.715Z,24.73
2022-09-14T12:04:05.550Z,25.37
2022-09-14T12:09:14.853Z,25.39
2022-09-14T12:14:31.067Z,25.49
2022-09-14T12:19:47.372Z,25.37
2022-09-14T12:25:16.133Z,25.73
2022-09-14T12:30:48.986Z,25.40
2022-09-14T12:35:52.479Z,25.59
2022-09-14T12:41:02.628Z,25.94
2022-09-14T12:46:10.117Z,25.63
2022-09-14T12:51:22.402Z,25.41
2022-09-14T12:56:28.712Z,25.74
2022-09-14T13:02:00.055Z,25.65
2022-09-14T13:07:07.288Z,25.51
2022-09-14T13:12:13.321Z,25.12
2022-09-14T13:17:17.840Z,25.50
2022-09-14T13:22:26.936Z,26.29
2022-09-14T13:27:33.735Z,26.62
2022-09-14T13:32:43.467Z,25.59
2022-09-14T13:37:48.427Z,25.72
2022-09-14T13:42:52.463Z,25.44
2022-09-14T13:47:56.843Z,25.85
2022-09-14T13:53:02.886Z,26.14
2022-09-14T13:58:10.334Z,25.72
2022-09-14T14:03:29.097Z,25.22
2022-09-14T14:08:36.551Z,24.65
2022-09-14T14:13:40.737Z,24.74
2022-09-14T14:18:50.419Z,24.67
2022-09-14T14:24:15.772Z,24.68
2022-09-14T14:29:20.166Z,24.43
2022-09-14T14:34:29.126Z,23.39
2022-09-14T14:39:33.379Z,23.35
2022-09-14T14:44:38.802Z,24.11
2022-09-14T14:49:42.334Z,23.41
2022-09-14T14:54:45.913Z,24.14
2022-09-14T14:59:53.747Z,23.67
2022-09-14T15:04:58.576Z,23.18
2022-09-14T15:10:02.172Z,24.00
2022-09-14T15:15:24.952Z,24.05
2022-09-14T15:20:29.154Z,23.99
2022-09-14T15:25:40.501Z,24.05
2022-09-14T15:30:44.384Z,23.53
2022-09-14T15:35:54.869Z,24.00
2022-09-14T15:40:58.615Z,22.93
2022-09-14T15:46:04.845Z,24.12
2022-09-14T15:51:14.781Z,24.09
2022-09-14T15:56:22.545Z,23.92
2022-09-14T16:01:30.222Z,23.91
2022-09-14T16:06:34.530Z,23.70
2022-09-14T16:11:39.819Z,23.63
2022-09-14T16:16:43.464Z,23.37
2022-09-14T16:21:53.728Z,23.63
2022-09-14T16:26:58.778Z,23.60
2022-09-14T16:32:02.373Z,22.59
2022-09-14T16:37:05.798Z,23.47
2022-09-14T16:42:09.272Z,23.27
2022-09-14T16:47:13.450Z,23.56
2022-09-14T16:52:18.054Z,22.62
2022-09-14T16:57:22.103Z,23.09
2022-09-14T17:02:25.932Z,23.26
2022-09-14T17:07:29.439Z,22.70
2022-09-14T17:12:32.932Z,23.10
2022-09-14T17:17:36.582Z,23.20
2022-09-14T17:22:40.647Z,23.07
2022-09-14T17:27:44.409Z,22.68
2022-09-14T17:32:49.825Z,23.24
2022-09-14T17:37:53.626Z,22.93
2022-09-14T17:42:57.503Z,22.97
2022-09-14T17:48:01.070Z,23.03
2022-09-14T17:53:04.528Z,22.04
2022-09-14T17:58:08.335Z,22.83
2022-09-14T18:03:16.298Z,22.13
2022-09-14T18:08:20.899Z,22.23
2022-09-14T18:13:25.053Z,22.55
2022-09-14T18:18:28.593Z,21.96
2022-09-14T18:23:32.359Z,21.92
2022-09-14T18:28:37.319Z,21.77
2022-09-14T18:33:41.053Z,22.20
2022-09-14T18:38:44.881Z,22.45
2022-09-14T18:43:56.228Z,22.30
2022-09-14T18:49:24.510Z,22.25
2022-09-14T18:54:29.121Z,22.06
2022-09-14T18:59:38.024Z,22.15
2022-09-14T19:04:41.445Z,21.10
2022-09-14T19:09:44.891Z,20.91
2022-09-14T19:14:48.333Z,20.87
2022-09-14T19:19:51.992Z,21.38
2022-09-14T19:25:10.275Z,20.91
2022-09-14T19:30:14.544Z,21.21
2022-09-14T19:35:28.716Z,21.81
2022-09-14T19:40:32.426Z,21.75
2022-09-14T19:45:36.463Z,21.91
2022-09-14T19:50:39.879Z,22.10
2022-09-14T19:55:43.595Z,21.90
2022-09-14T20:00:47.174Z,21.13
2022-09-14T20:06:20.313Z,20.86
2022-09-14T20:11:26.360Z,21.04
2022-09-14T20:16:34.551Z,22.05
2022-09-14T20:21:38.428Z,22.20
2022-09-14T20:26:42.608Z,22.31
2022-09-14T20:31:45.830Z,22.36
2022-09-14T20:36:50.265Z,22.00
2022-09-14T20:41:53.156Z,21.74
2022-09-14T20:46:55.923Z,21.82
2022-09-14T20:52:01.415Z,22.26
2022-09-14T20:57:04.702Z,21.39
2022-09-14T21:02:07.620Z,22.11
2022-09-14T21:07:11.820Z,22.66
2022-09-14T21:12:15.948Z,22.77
2022-09-14T21:17:19.320Z,21.83
2022-09-14T21:22:22.290Z,22.14
2022-09-14T21:27:25.289Z,22.53
2022-09-14T21:32:27.970Z,22.75
2022-09-14T21:37:30.883Z,22.50
2022-09-14T21:42:33.534Z,22.40
2022-09-14T21:47:39.974Z,22.05
2022-09-14T21:52:45.605Z,22.44
2022-09-14T21:57:49.055Z,22.20
2022-09-14T22:02:51.818Z,22.61
2022-09-14T22:07:54.589Z,21.51
2022-09-14T22:12:57.500Z,22.36
2022-09-14T22:18:02.283Z,22.65
2022-09-14T22:23:05.335Z,22.69
2022-09-14T22:28:08.392Z,22.58
2022-09-14T22:33:11.109Z,21.69
2022-09-14T22:38:13.961Z,22.54
2022-09-14T22:43:16.603Z,22.65
2022-09-14T22:48:19.408Z,22.07
2022-09-14T22:53:24.256Z,22.70
2022-09-14T22:58:28.448Z,22.64
2022-09-14T23:03:31.127Z,22.30
2022-09-14T23:08:36.220Z,22.63
2022-09-14T23:13:41.532Z,22.54
2022-09-14T23:18:45.318Z,22.25
2022-09-14T23:23:55.704Z,22.37
2022-09-14T23:29:02.163Z,22.51
2022-09-14T23:34:10.806Z,22.06
2022-09-14T23:39:13.734Z,22.35
2022-09-14T23:44:16.522Z,22.43
2022-09-14T23:49:19.541Z,22.36
2022-09-14T23:54:22.278Z,22.26
2022-09-14T23:59:25.132Z,22.40
